Arcata, CA (95518)

9:49 PM PDT on July 29, 2016 (GMT -0700)
APRSWXNET | | Change Station

Elev 3 ft 40.86 °N, 124.09 °W | Updated 41 minutes ago

Mostly Cloudy
Mostly Cloudy
57 °F
Feels Like 57 °F
N
6
Wind Variable Wind from SSW
Gusts 0.0 mph

Today
High -- | Low -- °F
--% Chance of Precip.
Yesterday
High -- | Low -- °F
Precip. -- in
Pressure 29.83 in
Visibility 7.0 miles
Clouds Mostly Cloudy 500 ft
Dew Point 56 °F
Humidity 96%
Rainfall in
Snow Depth Not available.
6:10 AM 8:34 PM
Waning Crescent, 16% visible
SPECI KACV 300413Z AUTO 17007KT 7SM BKN005 13/12 A2983 RMK AO2 T01330122
Pressure 29.83 in
Visibility 7.0 miles
Clouds Mostly Cloudy 500 ft
Dew Point 56 °F
Humidity 96%
Rainfall in
Snow Depth Not available.
6:10 AM 8:34 PM
Waning Crescent, 16% visible
SPECI KACV 300413Z AUTO 17007KT 7SM BKN005 13/12 A2983 RMK AO2 T01330122

10-Day Weather Forecast

Almanac

Astronomy

Jul. 29, 2016 Rise Set
Actual Time
Civil Twilight
Nautical Twilight
Astronomical Twilight
Moon
Length of Visible Light
Length of Day
Tomorrow will be .
, % of the Moon is Illuminated

Today's Extremes

State Highs State Lows

Community

WunderPhotos

Upload Photos

1,928,506 photos uploaded!

WunderBlog® & News

Nearby

Air Quality

  Air Quality AQ Index Pollutant
Not available.

Snow Depth

Station Depth Elevation

Earthquake Activity

City Distance Mag. Time & Date
Minimum magnitude displayed is 2.5.

Coastal Water Temperatures

Place Temperature

Stations

Nearby Weather Stations

Station Location Temp. Windchill Dew Point Humidity Wind Precip. Elev Updated Type
                   

Watches & Warnings

There are currently no watches in effect.